sensor_id;sensor_type;location;lat;lon;timestamp;pressure;altitude;pressure_sealevel;temperature;humidity
11017;BME280;54687;50.800;6.772;2023-03-14T00:01:44;61076.13;;;-144.06;57.78
11017;BME280;54687;50.800;6.772;2023-03-14T00:04:11;61071.94;;;-144.06;57.97
11017;BME280;54687;50.800;6.772;2023-03-14T00:06:38;61088.72;;;-144.06;58.19
11017;BME280;54687;50.800;6.772;2023-03-14T00:09:04;61082.44;;;-144.06;58.36
11017;BME280;54687;50.800;6.772;2023-03-14T00:11:31;61109.69;;;-144.06;58.28
11017;BME280;54687;50.800;6.772;2023-03-14T00:13:58;61055.19;;;-144.06;58.47
11017;BME280;54687;50.800;6.772;2023-03-14T00:16:25;61097.09;;;-144.06;58.44
11017;BME280;54687;50.800;6.772;2023-03-14T00:18:53;61095.00;;;-144.06;58.32
11017;BME280;54687;50.800;6.772;2023-03-14T00:21:20;61107.59;;;-144.06;57.93
11017;BME280;54687;50.800;6.772;2023-03-14T00:23:46;61109.69;;;-144.06;58.02
11017;BME280;54687;50.800;6.772;2023-03-14T00:26:15;61097.09;;;-144.06;57.65
11017;BME280;54687;50.800;6.772;2023-03-14T00:28:43;61109.69;;;-144.06;57.57
11017;BME280;54687;50.800;6.772;2023-03-14T00:31:11;61097.09;;;-144.06;57.64
11017;BME280;54687;50.800;6.772;2023-03-14T00:33:38;61101.28;;;-144.06;57.38
11017;BME280;54687;50.800;6.772;2023-03-14T00:36:09;61076.13;;;-144.06;57.45
11017;BME280;54687;50.800;6.772;2023-03-14T00:38:36;61084.53;;;-144.06;57.42
11017;BME280;54687;50.800;6.772;2023-03-14T00:41:04;61076.13;;;-144.06;57.34
11017;BME280;54687;50.800;6.772;2023-03-14T00:43:31;61071.94;;;-144.06;57.46
11017;BME280;54687;50.800;6.772;2023-03-14T00:45:58;61103.38;;;-144.06;57.32
11017;BME280;54687;50.800;6.772;2023-03-14T00:48:24;61063.56;;;-144.06;57.16
11017;BME280;54687;50.800;6.772;2023-03-14T00:50:51;61092.91;;;-144.06;57.32
11017;BME280;54687;50.800;6.772;2023-03-14T00:53:19;61040.50;;;-144.06;57.32
11017;BME280;54687;50.800;6.772;2023-03-14T00:55:46;61099.19;;;-144.06;57.28
11017;BME280;54687;50.800;6.772;2023-03-14T00:58:14;61109.69;;;-144.06;57.39
11017;BME280;54687;50.800;6.772;2023-03-14T01:00:42;61080.34;;;-144.06;57.27
11017;BME280;54687;50.800;6.772;2023-03-14T01:03:10;61101.28;;;-144.06;57.10
11017;BME280;54687;50.800;6.772;2023-03-14T01:05:37;61074.03;;;-144.06;57.07
11017;BME280;54687;50.800;6.772;2023-03-14T01:08:04;61067.75;;;-144.06;58.05
11017;BME280;54687;50.800;6.772;2023-03-14T01:10:33;61078.25;;;-144.06;58.67
11017;BME280;54687;50.800;6.772;2023-03-14T01:13:00;61097.09;;;-144.06;59.71
11017;BME280;54687;50.800;6.772;2023-03-14T01:15:27;61092.91;;;-144.06;60.49
11017;BME280;54687;50.800;6.772;2023-03-14T01:17:53;61080.34;;;-144.06;60.31
11017;BME280;54687;50.800;6.772;2023-03-14T01:20:20;61076.13;;;-144.06;60.70
11017;BME280;54687;50.800;6.772;2023-03-14T01:22:47;61067.75;;;-144.06;60.92
11017;BME280;54687;50.800;6.772;2023-03-14T01:25:15;61105.50;;;-144.06;62.17
11017;BME280;54687;50.800;6.772;2023-03-14T01:27:43;61097.09;;;-144.06;62.89
11017;BME280;54687;50.800;6.772;2023-03-14T01:30:12;61095.00;;;-144.06;63.55
11017;BME280;54687;50.800;6.772;2023-03-14T01:32:40;61090.81;;;-144.06;63.80
11017;BME280;54687;50.800;6.772;2023-03-14T01:35:06;61105.50;;;-144.06;64.36
11017;BME280;54687;50.800;6.772;2023-03-14T01:37:33;61095.00;;;-144.06;65.26
11017;BME280;54687;50.800;6.772;2023-03-14T01:40:00;61113.88;;;-144.06;63.74
11017;BME280;54687;50.800;6.772;2023-03-14T01:42:28;61134.84;;;-144.06;64.09
11017;BME280;54687;50.800;6.772;2023-03-14T01:44:57;61128.53;;;-144.06;63.92
11017;BME280;54687;50.800;6.772;2023-03-14T01:47:25;61080.34;;;-144.06;63.96
11017;BME280;54687;50.800;6.772;2023-03-14T01:49:55;61063.56;;;-144.06;64.16
11017;BME280;54687;50.800;6.772;2023-03-14T01:52:25;61099.19;;;-144.06;64.16
11017;BME280;54687;50.800;6.772;2023-03-14T01:54:55;61118.06;;;-144.06;64.30
11017;BME280;54687;50.800;6.772;2023-03-14T01:57:27;61128.53;;;-144.06;64.91
11017;BME280;54687;50.800;6.772;2023-03-14T02:00:00;61141.13;;;-144.06;64.67
11017;BME280;54687;50.800;6.772;2023-03-14T02:02:33;61109.69;;;-144.06;65.24
11017;BME280;54687;50.800;6.772;2023-03-14T02:05:02;61082.44;;;-144.06;64.79
11017;BME280;54687;50.800;6.772;2023-03-14T02:07:34;61103.38;;;-144.06;64.58
11017;BME280;54687;50.800;6.772;2023-03-14T02:10:03;61155.81;;;-144.06;64.43
11017;BME280;54687;50.800;6.772;2023-03-14T02:12:30;61134.84;;;-144.06;64.30
11017;BME280;54687;50.800;6.772;2023-03-14T02:14:59;61141.13;;;-144.06;63.86
11017;BME280;54687;50.800;6.772;2023-03-14T02:17:26;61111.78;;;-144.06;64.04
11017;BME280;54687;50.800;6.772;2023-03-14T02:20:05;61080.34;;;-144.06;63.99
11017;BME280;54687;50.800;6.772;2023-03-14T02:22:37;61105.50;;;-144.06;64.00
11017;BME280;54687;50.800;6.772;2023-03-14T02:25:08;61126.44;;;-144.06;64.19
11017;BME280;54687;50.800;6.772;2023-03-14T02:27:37;61124.34;;;-144.06;64.37
11017;BME280;54687;50.800;6.772;2023-03-14T02:30:08;61092.91;;;-144.06;64.87
11017;BME280;54687;50.800;6.772;2023-03-14T02:32:37;61080.34;;;-144.06;64.97
11017;BME280;54687;50.800;6.772;2023-03-14T02:35:07;61088.72;;;-144.06;65.46
11017;BME280;54687;50.800;6.772;2023-03-14T02:37:38;61145.31;;;-144.06;65.77
11017;BME280;54687;50.800;6.772;2023-03-14T02:40:08;61109.69;;;-144.06;66.13
11017;BME280;54687;50.800;6.772;2023-03-14T02:42:36;61147.41;;;-144.06;66.41
11017;BME280;54687;50.800;6.772;2023-03-14T02:45:32;61145.31;;;-144.06;66.62
11017;BME280;54687;50.800;6.772;2023-03-14T02:48:02;61109.69;;;-144.06;66.76
11017;BME280;54687;50.800;6.772;2023-03-14T02:50:33;61122.25;;;-144.06;66.87
11017;BME280;54687;50.800;6.772;2023-03-14T02:53:00;61164.19;;;-144.06;66.71
11017;BME280;54687;50.800;6.772;2023-03-14T02:55:26;61107.59;;;-144.06;66.48
11017;BME280;54687;50.800;6.772;2023-03-14T02:57:54;61122.25;;;-144.06;66.21
11017;BME280;54687;50.800;6.772;2023-03-14T03:00:21;61132.75;;;-144.06;65.69
11017;BME280;54687;50.800;6.772;2023-03-14T03:02:47;61134.84;;;-144.06;65.41
11017;BME280;54687;50.800;6.772;2023-03-14T03:05:14;61130.66;;;-144.06;65.58
11017;BME280;54687;50.800;6.772;2023-03-14T03:07:41;61130.66;;;-144.06;65.24
11017;BME280;54687;50.800;6.772;2023-03-14T03:10:08;61124.34;;;-144.06;65.15
11017;BME280;54687;50.800;6.772;2023-03-14T03:12:35;61101.28;;;-144.06;65.02
11017;BME280;54687;50.800;6.772;2023-03-14T03:15:04;61097.09;;;-144.06;64.87
11017;BME280;54687;50.800;6.772;2023-03-14T03:17:30;61130.66;;;-144.06;64.53
11017;BME280;54687;50.800;6.772;2023-03-14T03:19:57;61076.13;;;-144.06;64.12
11017;BME280;54687;50.800;6.772;2023-03-14T03:22:24;61107.59;;;-144.06;63.85
11017;BME280;54687;50.800;6.772;2023-03-14T03:24:50;61105.50;;;-144.06;63.50
11017;BME280;54687;50.800;6.772;2023-03-14T03:27:17;61088.72;;;-144.06;63.62
11017;BME280;54687;50.800;6.772;2023-03-14T03:29:43;61080.34;;;-144.06;63.19
11017;BME280;54687;50.800;6.772;2023-03-14T03:32:11;61076.13;;;-144.06;63.32
11017;BME280;54687;50.800;6.772;2023-03-14T03:34:38;61101.28;;;-144.06;63.23
11017;BME280;54687;50.800;6.772;2023-03-14T03:37:04;61134.84;;;-144.06;63.26
11017;BME280;54687;50.800;6.772;2023-03-14T03:39:31;61076.13;;;-144.06;63.11
11017;BME280;54687;50.800;6.772;2023-03-14T03:41:57;61067.75;;;-144.06;63.26
11017;BME280;54687;50.800;6.772;2023-03-14T03:44:24;61080.34;;;-144.06;63.03
11017;BME280;54687;50.800;6.772;2023-03-14T03:46:50;61097.09;;;-144.06;62.84
11017;BME280;54687;50.800;6.772;2023-03-14T03:49:18;61084.53;;;-144.06;62.88
11017;BME280;54687;50.800;6.772;2023-03-14T03:51:45;61097.09;;;-144.06;62.86
11017;BME280;54687;50.800;6.772;2023-03-14T03:54:11;61105.50;;;-144.06;63.07
11017;BME280;54687;50.800;6.772;2023-03-14T03:56:38;61130.66;;;-144.06;63.13
11017;BME280;54687;50.800;6.772;2023-03-14T03:59:05;61105.50;;;-144.06;63.27
11017;BME280;54687;50.800;6.772;2023-03-14T04:01:32;61139.03;;;-144.06;63.26
11017;BME280;54687;50.800;6.772;2023-03-14T04:03:58;61118.06;;;-144.06;63.34
11017;BME280;54687;50.800;6.772;2023-03-14T04:06:26;61088.72;;;-144.06;63.37
11017;BME280;54687;50.800;6.772;2023-03-14T04:08:53;61074.03;;;-144.06;63.31
11017;BME280;54687;50.800;6.772;2023-03-14T04:11:20;61097.09;;;-144.06;63.37
11017;BME280;54687;50.800;6.772;2023-03-14T04:13:46;61099.19;;;-144.06;64.06
11017;BME280;54687;50.800;6.772;2023-03-14T04:16:15;61101.28;;;-144.06;64.24
11017;BME280;54687;50.800;6.772;2023-03-14T04:18:42;61113.88;;;-144.06;64.62
11017;BME280;54687;50.800;6.772;2023-03-14T04:21:09;61105.50;;;-144.06;65.33
11017;BME280;54687;50.800;6.772;2023-03-14T04:23:37;61048.88;;;-144.06;65.70
11017;BME280;54687;50.800;6.772;2023-03-14T04:26:04;61103.38;;;-144.06;66.04
11017;BME280;54687;50.800;6.772;2023-03-14T04:28:31;61080.34;;;-144.06;66.04
11017;BME280;54687;50.800;6.772;2023-03-14T04:30:57;61076.13;;;-144.06;66.06
11017;BME280;54687;50.800;6.772;2023-03-14T04:33:24;61101.28;;;-144.06;66.27
11017;BME280;54687;50.800;6.772;2023-03-14T04:35:53;61103.38;;;-144.06;66.65
11017;BME280;54687;50.800;6.772;2023-03-14T04:38:20;61076.13;;;-144.06;66.60
11017;BME280;54687;50.800;6.772;2023-03-14T04:40:48;61113.88;;;-144.06;66.44
11017;BME280;54687;50.800;6.772;2023-03-14T04:43:14;61097.09;;;-144.06;66.37
11017;BME280;54687;50.800;6.772;2023-03-14T04:45:41;61113.88;;;-144.06;66.16
11017;BME280;54687;50.800;6.772;2023-03-14T04:48:09;61111.78;;;-144.06;66.20
11017;BME280;54687;50.800;6.772;2023-03-14T04:50:35;61067.75;;;-144.06;66.29
11017;BME280;54687;50.800;6.772;2023-03-14T04:53:02;61074.03;;;-144.06;66.44
11017;BME280;54687;50.800;6.772;2023-03-14T04:55:28;61069.84;;;-144.06;66.17
11017;BME280;54687;50.800;6.772;2023-03-14T04:57:56;61126.44;;;-144.06;66.06
11017;BME280;54687;50.800;6.772;2023-03-14T05:00:23;61122.25;;;-144.06;66.00
11017;BME280;54687;50.800;6.772;2023-03-14T05:02:50;61139.03;;;-144.06;65.86
11017;BME280;54687;50.800;6.772;2023-03-14T05:05:17;61122.25;;;-144.06;65.71
11017;BME280;54687;50.800;6.772;2023-03-14T05:07:44;61101.28;;;-144.06;65.61
11017;BME280;54687;50.800;6.772;2023-03-14T05:10:10;61101.28;;;-144.06;65.58
11017;BME280;54687;50.800;6.772;2023-03-14T05:12:37;61099.19;;;-144.06;64.94
11017;BME280;54687;50.800;6.772;2023-03-14T05:15:07;61084.53;;;-144.06;64.20
11017;BME280;54687;50.800;6.772;2023-03-14T05:17:34;61111.78;;;-144.06;64.00
11017;BME280;54687;50.800;6.772;2023-03-14T05:20:05;61111.78;;;-144.06;63.45
11017;BME280;54687;50.800;6.772;2023-03-14T05:22:46;61107.59;;;-144.06;63.59
11017;BME280;54687;50.800;6.772;2023-03-14T05:25:13;61055.19;;;-144.06;63.42
11017;BME280;54687;50.800;6.772;2023-03-14T05:27:40;61134.84;;;-144.06;63.66
11017;BME280;54687;50.800;6.772;2023-03-14T05:30:09;61113.88;;;-144.06;63.48
11017;BME280;54687;50.800;6.772;2023-03-14T05:32:36;61097.09;;;-144.06;63.53
11017;BME280;54687;50.800;6.772;2023-03-14T05:35:04;61105.50;;;-144.06;63.53
11017;BME280;54687;50.800;6.772;2023-03-14T05:37:30;61095.00;;;-144.06;63.81
11017;BME280;54687;50.800;6.772;2023-03-14T05:39:57;61067.75;;;-144.06;64.04
11017;BME280;54687;50.800;6.772;2023-03-14T05:42:24;61105.50;;;-144.06;64.23
11017;BME280;54687;50.800;6.772;2023-03-14T05:44:50;61088.72;;;-144.06;64.43
11017;BME280;54687;50.800;6.772;2023-03-14T05:47:18;61095.00;;;-144.06;64.69
11017;BME280;54687;50.800;6.772;2023-03-14T05:49:45;61139.03;;;-144.06;65.21
11017;BME280;54687;50.800;6.772;2023-03-14T05:52:12;61101.28;;;-144.06;65.83
11017;BME280;54687;50.800;6.772;2023-03-14T05:54:39;61115.97;;;-144.06;65.97
11017;BME280;54687;50.800;6.772;2023-03-14T05:57:06;61149.50;;;-144.06;66.16
11017;BME280;54687;50.800;6.772;2023-03-14T05:59:33;61113.88;;;-144.06;66.16
11017;BME280;54687;50.800;6.772;2023-03-14T06:02:00;61082.44;;;-144.06;65.64
11017;BME280;54687;50.800;6.772;2023-03-14T06:04:30;61076.13;;;-144.06;65.05
11017;BME280;54687;50.800;6.772;2023-03-14T06:06:56;61109.69;;;-144.06;64.95
11017;BME280;54687;50.800;6.772;2023-03-14T06:09:23;61097.09;;;-144.06;65.15
11017;BME280;54687;50.800;6.772;2023-03-14T06:11:50;61076.13;;;-144.06;65.17
11017;BME280;54687;50.800;6.772;2023-03-14T06:14:17;61124.34;;;-144.06;65.41
11017;BME280;54687;50.800;6.772;2023-03-14T06:16:43;61084.53;;;-144.06;65.50
11017;BME280;54687;50.800;6.772;2023-03-14T06:19:10;61105.50;;;-144.06;65.12
11017;BME280;54687;50.800;6.772;2023-03-14T06:21:38;61067.75;;;-144.06;64.52
11017;BME280;54687;50.800;6.772;2023-03-14T06:24:08;61078.25;;;-144.06;64.13
11017;BME280;54687;50.800;6.772;2023-03-14T06:26:35;61143.22;;;-144.06;63.84
11017;BME280;54687;50.800;6.772;2023-03-14T06:29:02;61088.72;;;-144.06;63.94
11017;BME280;54687;50.800;6.772;2023-03-14T06:31:29;61063.56;;;-144.06;64.06
11017;BME280;54687;50.800;6.772;2023-03-14T06:33:55;61134.84;;;-144.06;63.90
11017;BME280;54687;50.800;6.772;2023-03-14T06:36:22;61128.53;;;-144.06;63.80
11017;BME280;54687;50.800;6.772;2023-03-14T06:38:50;61118.06;;;-144.06;63.89
11017;BME280;54687;50.800;6.772;2023-03-14T06:41:16;61134.84;;;-144.06;63.79
11017;BME280;54687;50.800;6.772;2023-03-14T06:43:43;61097.09;;;-144.06;63.75
11017;BME280;54687;50.800;6.772;2023-03-14T06:46:10;61076.13;;;-144.06;63.15
11017;BME280;54687;50.800;6.772;2023-03-14T06:48:36;61095.00;;;-144.06;63.08
11017;BME280;54687;50.800;6.772;2023-03-14T06:51:03;61122.25;;;-144.06;62.68
11017;BME280;54687;50.800;6.772;2023-03-14T06:53:30;61092.91;;;-144.06;62.39
11017;BME280;54687;50.800;6.772;2023-03-14T06:55:58;61109.69;;;-144.06;62.52
11017;BME280;54687;50.800;6.772;2023-03-14T06:58:25;61080.34;;;-144.06;62.56
11017;BME280;54687;50.800;6.772;2023-03-14T07:00:52;61134.84;;;-144.06;62.71
11017;BME280;54687;50.800;6.772;2023-03-14T07:03:19;61113.88;;;-144.06;62.79
11017;BME280;54687;50.800;6.772;2023-03-14T07:05:46;61078.25;;;-144.06;62.84
11017;BME280;54687;50.800;6.772;2023-03-14T07:08:13;61105.50;;;-144.06;62.48
11017;BME280;54687;50.800;6.772;2023-03-14T07:10:40;61097.09;;;-144.06;62.54
11017;BME280;54687;50.800;6.772;2023-03-14T07:13:08;61092.91;;;-144.06;62.56
11017;BME280;54687;50.800;6.772;2023-03-14T07:15:34;61065.66;;;-144.06;62.64
11017;BME280;54687;50.800;6.772;2023-03-14T07:18:01;61055.19;;;-144.06;62.58
11017;BME280;54687;50.800;6.772;2023-03-14T07:20:28;61076.13;;;-144.06;62.55
11017;BME280;54687;50.800;6.772;2023-03-14T07:22:59;61084.53;;;-144.06;62.65
11017;BME280;54687;50.800;6.772;2023-03-14T07:25:28;61126.44;;;-144.06;62.34
11017;BME280;54687;50.800;6.772;2023-03-14T07:27:54;61115.97;;;-144.06;62.21
11017;BME280;54687;50.800;6.772;2023-03-14T07:30:22;61055.19;;;-144.06;62.15
11017;BME280;54687;50.800;6.772;2023-03-14T07:32:49;61088.72;;;-144.06;62.02
11017;BME280;54687;50.800;6.772;2023-03-14T07:35:16;61095.00;;;-144.06;62.00
11017;BME280;54687;50.800;6.772;2023-03-14T07:37:42;61090.81;;;-144.06;61.60
11017;BME280;54687;50.800;6.772;2023-03-14T07:40:10;61051.00;;;-144.06;61.44
11017;BME280;54687;50.800;6.772;2023-03-14T07:42:40;61030.03;;;-144.06;61.22
11017;BME280;54687;50.800;6.772;2023-03-14T07:45:07;61067.75;;;-144.06;60.18
11017;BME280;54687;50.800;6.772;2023-03-14T07:47:36;61069.84;;;-144.06;59.38
11017;BME280;54687;50.800;6.772;2023-03-14T07:50:03;61034.22;;;-144.06;59.44
11017;BME280;54687;50.800;6.772;2023-03-14T07:52:30;61061.47;;;-144.06;59.01
11017;BME280;54687;50.800;6.772;2023-03-14T07:54:57;61034.22;;;-144.06;58.62
11017;BME280;54687;50.800;6.772;2023-03-14T07:57:23;61055.19;;;-144.06;58.00
11017;BME280;54687;50.800;6.772;2023-03-14T07:59:50;61055.19;;;-144.06;57.61
11017;BME280;54687;50.800;6.772;2023-03-14T08:02:17;61017.44;;;-144.06;57.18
11017;BME280;54687;50.800;6.772;2023-03-14T08:04:48;61034.22;;;-144.06;57.21
11017;BME280;54687;50.800;6.772;2023-03-14T08:07:15;61057.28;;;-144.06;56.41
11017;BME280;54687;50.800;6.772;2023-03-14T08:09:41;61046.78;;;-144.06;56.63
11017;BME280;54687;50.800;6.772;2023-03-14T08:12:08;61009.06;;;-144.06;56.87
11017;BME280;54687;50.800;6.772;2023-03-14T08:14:35;61021.63;;;-144.06;56.65
11017;BME280;54687;50.800;6.772;2023-03-14T08:17:01;61036.31;;;-144.06;56.15
11017;BME280;54687;50.800;6.772;2023-03-14T08:19:28;61067.75;;;-144.06;55.91
11017;BME280;54687;50.800;6.772;2023-03-14T08:21:56;61030.03;;;-144.06;55.61
11017;BME280;54687;50.800;6.772;2023-03-14T08:24:23;60992.28;;;-144.06;54.99
11017;BME280;54687;50.800;6.772;2023-03-14T08:26:49;61017.44;;;-144.06;55.33
11017;BME280;54687;50.800;6.772;2023-03-14T08:29:16;61000.69;;;-144.06;55.29
11017;BME280;54687;50.800;6.772;2023-03-14T08:31:42;61036.31;;;-144.06;55.06
11017;BME280;54687;50.800;6.772;2023-03-14T08:34:09;61025.84;;;-144.06;54.45
11017;BME280;54687;50.800;6.772;2023-03-14T08:36:36;61009.06;;;-144.06;53.89
11017;BME280;54687;50.800;6.772;2023-03-14T08:39:04;60996.50;;;-144.06;53.96
11017;BME280;54687;50.800;6.772;2023-03-14T08:41:33;61030.03;;;-144.06;54.00
11017;BME280;54687;50.800;6.772;2023-03-14T08:44:05;61017.44;;;-144.06;53.90
11017;BME280;54687;50.800;6.772;2023-03-14T08:46:31;60992.28;;;-144.06;53.73
11017;BME280;54687;50.800;6.772;2023-03-14T08:48:58;61017.44;;;-144.06;54.07
11017;BME280;54687;50.800;6.772;2023-03-14T08:51:25;61017.44;;;-144.06;54.13
11017;BME280;54687;50.800;6.772;2023-03-14T08:53:51;61009.06;;;-144.06;54.09
11017;BME280;54687;50.800;6.772;2023-03-14T08:56:19;61004.88;;;-144.06;54.23
11017;BME280;54687;50.800;6.772;2023-03-14T08:58:46;61021.63;;;-144.06;54.12
11017;BME280;54687;50.800;6.772;2023-03-14T09:01:12;61017.44;;;-144.06;53.94
11017;BME280;54687;50.800;6.772;2023-03-14T09:03:39;61025.84;;;-144.06;53.60
11017;BME280;54687;50.800;6.772;2023-03-14T09:06:07;61000.69;;;-144.06;53.37
11017;BME280;54687;50.800;6.772;2023-03-14T09:08:34;61013.25;;;-144.06;54.01
11017;BME280;54687;50.800;6.772;2023-03-14T09:11:01;60983.91;;;-144.06;54.35
11017;BME280;54687;50.800;6.772;2023-03-14T09:13:29;60998.59;;;-144.06;54.50
11017;BME280;54687;50.800;6.772;2023-03-14T09:15:56;61000.69;;;-144.06;54.96
11017;BME280;54687;50.800;6.772;2023-03-14T09:18:23;61042.59;;;-144.06;55.41
11017;BME280;54687;50.800;6.772;2023-03-14T09:20:49;61055.19;;;-144.06;55.59
11017;BME280;54687;50.800;6.772;2023-03-14T09:23:16;61017.44;;;-144.06;56.00
11017;BME280;54687;50.800;6.772;2023-03-14T09:25:42;61017.44;;;-144.06;56.51
11017;BME280;54687;50.800;6.772;2023-03-14T09:28:09;61025.84;;;-144.06;56.48
11017;BME280;54687;50.800;6.772;2023-03-14T09:30:38;61021.63;;;-144.06;56.99
11017;BME280;54687;50.800;6.772;2023-03-14T09:33:05;61034.22;;;-144.06;58.74
11017;BME280;54687;50.800;6.772;2023-03-14T09:35:33;61055.19;;;-144.06;58.02
11017;BME280;54687;50.800;6.772;2023-03-14T09:37:59;61038.41;;;-144.06;56.16
11017;BME280;54687;50.800;6.772;2023-03-14T09:40:31;61027.94;;;-144.06;57.39
11017;BME280;54687;50.800;6.772;2023-03-14T09:42:59;61069.84;;;-144.06;56.97
11017;BME280;54687;50.800;6.772;2023-03-14T09:45:28;61097.09;;;-144.06;57.88
11017;BME280;54687;50.800;6.772;2023-03-14T09:47:58;61101.28;;;-144.06;58.46
11017;BME280;54687;50.800;6.772;2023-03-14T09:50:26;61067.75;;;-144.06;60.21
11017;BME280;54687;50.800;6.772;2023-03-14T09:52:56;61057.28;;;-144.06;59.73
11017;BME280;54687;50.800;6.772;2023-03-14T09:55:25;61063.56;;;-144.06;59.24
11017;BME280;54687;50.800;6.772;2023-03-14T09:57:56;61059.38;;;-144.06;60.48
11017;BME280;54687;50.800;6.772;2023-03-14T10:00:26;61063.56;;;-144.06;60.84
11017;BME280;54687;50.800;6.772;2023-03-14T10:02:55;61071.94;;;-144.06;61.07
11017;BME280;54687;50.800;6.772;2023-03-14T10:05:25;61046.78;;;-144.06;60.84
11017;BME280;54687;50.800;6.772;2023-03-14T10:07:53;61099.19;;;-144.06;61.73
11017;BME280;54687;50.800;6.772;2023-03-14T10:10:21;61099.19;;;-144.06;61.58
11017;BME280;54687;50.800;6.772;2023-03-14T10:12:55;61107.59;;;-144.06;62.34
11017;BME280;54687;50.800;6.772;2023-03-14T10:15:26;61059.38;;;-144.06;61.24
11017;BME280;54687;50.800;6.772;2023-03-14T10:17:54;61097.09;;;-144.06;61.52
11017;BME280;54687;50.800;6.772;2023-03-14T10:20:31;61088.72;;;-144.06;60.26
11017;BME280;54687;50.800;6.772;2023-03-14T10:23:03;61067.75;;;-144.06;60.03
11017;BME280;54687;50.800;6.772;2023-03-14T10:25:32;61086.63;;;-144.06;60.72
11017;BME280;54687;50.800;6.772;2023-03-14T10:28:00;61111.78;;;-144.06;61.81
11017;BME280;54687;50.800;6.772;2023-03-14T10:30:30;61097.09;;;-144.06;61.60
11017;BME280;54687;50.800;6.772;2023-03-14T10:33:08;61074.03;;;-144.06;61.04
11017;BME280;54687;50.800;6.772;2023-03-14T10:35:36;61126.44;;;-144.06;60.98
11017;BME280;54687;50.800;6.772;2023-03-14T10:38:03;61071.94;;;-144.06;60.82
11017;BME280;54687;50.800;6.772;2023-03-14T10:40:31;61065.66;;;-144.06;60.21
11017;BME280;54687;50.800;6.772;2023-03-14T10:43:00;61097.09;;;-144.06;59.43
11017;BME280;54687;50.800;6.772;2023-03-14T10:45:32;61088.72;;;-144.06;59.45
11017;BME280;54687;50.800;6.772;2023-03-14T10:48:15;61055.19;;;-144.06;58.10
11017;BME280;54687;50.800;6.772;2023-03-14T10:50:53;61088.72;;;-144.06;58.79
11017;BME280;54687;50.800;6.772;2023-03-14T10:53:21;61097.09;;;-144.06;57.87
11017;BME280;54687;50.800;6.772;2023-03-14T10:55:48;61105.50;;;-144.06;57.95
11017;BME280;54687;50.800;6.772;2023-03-14T10:58:20;61105.50;;;-144.06;58.44
11017;BME280;54687;50.800;6.772;2023-03-14T11:00:51;61139.03;;;-144.06;58.48
11017;BME280;54687;50.800;6.772;2023-03-14T11:03:19;61115.97;;;-144.06;57.53
11017;BME280;54687;50.800;6.772;2023-03-14T11:05:51;61109.69;;;-144.06;56.85
11017;BME280;54687;50.800;6.772;2023-03-14T11:08:24;61109.69;;;-144.06;55.56
11017;BME280;54687;50.800;6.772;2023-03-14T11:10:54;61071.94;;;-144.06;57.23
11017;BME280;54687;50.800;6.772;2023-03-14T11:13:24;61057.28;;;-144.06;57.87
11017;BME280;54687;50.800;6.772;2023-03-14T11:15:58;61105.50;;;-144.06;58.36
11017;BME280;54687;50.800;6.772;2023-03-14T11:18:46;61101.28;;;-144.06;57.61
11017;BME280;54687;50.800;6.772;2023-03-14T11:21:19;61063.56;;;-144.06;55.62
11017;BME280;54687;50.800;6.772;2023-03-14T11:23:57;61038.41;;;-144.06;55.48
11017;BME280;54687;50.800;6.772;2023-03-14T11:26:33;61076.13;;;-144.06;55.28
11017;BME280;54687;50.800;6.772;2023-03-14T11:29:14;61042.59;;;-144.06;54.11
11017;BME280;54687;50.800;6.772;2023-03-14T11:31:44;61078.25;;;-144.06;53.29
11017;BME280;54687;50.800;6.772;2023-03-14T11:34:16;61034.22;;;-144.06;53.12
11017;BME280;54687;50.800;6.772;2023-03-14T11:36:51;61038.41;;;-144.06;52.16
11017;BME280;54687;50.800;6.772;2023-03-14T11:39:20;61038.41;;;-144.06;51.72
11017;BME280;54687;50.800;6.772;2023-03-14T11:41:49;61055.19;;;-144.06;50.25
11017;BME280;54687;50.800;6.772;2023-03-14T11:44:19;61017.44;;;-144.06;49.87
11017;BME280;54687;50.800;6.772;2023-03-14T11:46:50;61021.63;;;-144.06;50.07
11017;BME280;54687;50.800;6.772;2023-03-14T11:49:30;61042.59;;;-144.06;49.13
11017;BME280;54687;50.800;6.772;2023-03-14T11:52:03;61036.31;;;-144.06;48.58
11017;BME280;54687;50.800;6.772;2023-03-14T11:54:39;61057.28;;;-144.06;49.36
11017;BME280;54687;50.800;6.772;2023-03-14T11:57:13;61025.84;;;-144.06;56.26
11017;BME280;54687;50.800;6.772;2023-03-14T11:59:47;61111.78;;;-144.06;57.24
11017;BME280;54687;50.800;6.772;2023-03-14T12:02:22;61120.16;;;-144.06;61.58
11017;BME280;54687;50.800;6.772;2023-03-14T12:05:14;61136.94;;;-144.06;64.87
11017;BME280;54687;50.800;6.772;2023-03-14T12:08:09;61109.69;;;-144.06;67.64
11017;BME280;54687;50.800;6.772;2023-03-14T12:10:44;61115.97;;;-144.06;69.58
11017;BME280;54687;50.800;6.772;2023-03-14T12:13:15;61113.88;;;-144.06;71.42
11017;BME280;54687;50.800;6.772;2023-03-14T12:15:53;61118.06;;;-144.06;71.58
11017;BME280;54687;50.800;6.772;2023-03-14T12:18:26;61118.06;;;-144.06;71.21
11017;BME280;54687;50.800;6.772;2023-03-14T12:20:55;61080.34;;;-144.06;73.47
11017;BME280;54687;50.800;6.772;2023-03-14T12:23:25;61130.66;;;-144.06;74.10
11017;BME280;54687;50.800;6.772;2023-03-14T12:26:08;61134.84;;;-144.06;75.48
11017;BME280;54687;50.800;6.772;2023-03-14T12:28:42;61088.72;;;-144.06;74.77
11017;BME280;54687;50.800;6.772;2023-03-14T12:31:38;61132.75;;;-144.06;74.26
11017;BME280;54687;50.800;6.772;2023-03-14T12:34:27;61139.03;;;-144.06;74.34
11017;BME280;54687;50.800;6.772;2023-03-14T12:37:18;61166.28;;;-144.06;74.25
11017;BME280;54687;50.800;6.772;2023-03-14T12:39:59;61103.38;;;-144.06;73.87
11017;BME280;54687;50.800;6.772;2023-03-14T12:42:40;61160.00;;;-144.06;73.57
11017;BME280;54687;50.800;6.772;2023-03-14T12:45:22;61145.31;;;-144.06;75.51
11017;BME280;54687;50.800;6.772;2023-03-14T12:48:03;61130.66;;;-144.06;75.02
11017;BME280;54687;50.800;6.772;2023-03-14T12:50:35;61126.44;;;-144.06;74.55